createdAt,value
2022-09-20T00:00:50.829Z,1.10
2022-09-20T00:03:20.007Z,1.60
2022-09-20T00:05:48.093Z,1.13
2022-09-20T00:08:17.067Z,1.52
2022-09-20T00:10:45.317Z,0.85
2022-09-20T00:13:14.475Z,1.05
2022-09-20T00:15:42.948Z,1.40
2022-09-20T00:18:11.487Z,1.83
2022-09-20T00:20:47.050Z,1.15
2022-09-20T00:23:15.434Z,1.00
2022-09-20T00:25:43.906Z,1.40
2022-09-20T00:28:12.208Z,2.25
2022-09-20T00:30:40.411Z,1.30
2022-09-20T00:33:08.549Z,1.40
2022-09-20T00:35:36.123Z,1.10
2022-09-20T00:38:05.215Z,1.85
2022-09-20T00:40:33.534Z,1.45
2022-09-20T00:43:01.644Z,1.45
2022-09-20T00:45:31.404Z,1.52
2022-09-20T00:48:03.295Z,1.52
2022-09-20T00:50:34.998Z,1.05
2022-09-20T00:53:07.507Z,2.03
2022-09-20T00:55:36.719Z,1.65
2022-09-20T00:58:04.831Z,1.40
2022-09-20T01:00:32.807Z,1.80
2022-09-20T01:03:03.238Z,1.35
2022-09-20T01:05:31.075Z,1.17
2022-09-20T01:07:58.818Z,2.10
2022-09-20T01:10:28.543Z,1.70
2022-09-20T01:12:56.921Z,2.13
2022-09-20T01:15:28.040Z,1.63
2022-09-20T01:17:57.873Z,1.77
2022-09-20T01:20:26.741Z,1.33
2022-09-20T01:23:01.812Z,1.90
2022-09-20T01:25:43.009Z,1.30
2022-09-20T01:28:12.405Z,1.63
2022-09-20T01:30:43.277Z,1.55
2022-09-20T01:33:13.622Z,1.52
2022-09-20T01:35:43.610Z,2.05
2022-09-20T01:38:19.820Z,1.48
2022-09-20T01:40:52.534Z,2.88
2022-09-20T01:43:25.649Z,1.67
2022-09-20T01:48:26.105Z,1.70
2022-09-20T01:51:06.492Z,2.05
2022-09-20T01:53:47.282Z,2.10
2022-09-20T01:56:32.264Z,1.77
2022-09-20T01:59:23.641Z,1.95
2022-09-20T02:02:07.783Z,1.50
2022-09-20T02:04:53.903Z,1.67
2022-09-20T02:07:39.201Z,2.17
2022-09-20T02:10:16.764Z,1.90
2022-09-20T02:12:55.138Z,2.28
2022-09-20T02:15:32.344Z,1.80
2022-09-20T02:18:05.378Z,2.83
2022-09-20T02:23:12.915Z,2.95
2022-09-20T02:25:48.091Z,2.70
2022-09-20T02:28:22.978Z,1.60
2022-09-20T02:30:56.613Z,2.03
2022-09-20T02:33:34.236Z,1.98
2022-09-20T02:36:07.724Z,2.53
2022-09-20T02:38:43.629Z,2.38
2022-09-20T02:41:41.336Z,2.17
2022-09-20T02:44:15.044Z,2.10
2022-09-20T02:46:48.355Z,2.50
2022-09-20T02:49:21.745Z,2.50
2022-09-20T02:51:52.836Z,1.80
2022-09-20T02:54:25.119Z,1.98
2022-09-20T02:56:55.914Z,2.22
2022-09-20T02:59:28.306Z,2.15
2022-09-20T03:02:02.195Z,2.20
2022-09-20T03:04:35.671Z,2.20
2022-09-20T03:07:09.290Z,2.10
2022-09-20T03:09:42.395Z,2.15
2022-09-20T03:14:38.816Z,2.05
2022-09-20T03:17:14.035Z,1.50
2022-09-20T03:19:47.865Z,2.50
2022-09-20T03:22:19.707Z,2.10
2022-09-20T03:24:55.195Z,2.83
2022-09-20T03:27:30.945Z,1.77
2022-09-20T03:30:15.113Z,1.58
2022-09-20T03:32:52.905Z,1.63
2022-09-20T03:35:29.532Z,1.83
2022-09-20T03:38:04.345Z,1.77
2022-09-20T03:40:47.004Z,1.25
2022-09-20T03:43:19.844Z,1.60
2022-09-20T03:45:55.490Z,1.85
2022-09-20T03:48:57.567Z,1.65
2022-09-20T03:51:33.611Z,1.58
2022-09-20T03:54:22.010Z,2.08
2022-09-20T03:57:19.627Z,1.80
2022-09-20T03:59:55.074Z,1.85
2022-09-20T04:02:33.290Z,1.40
2022-09-20T04:05:04.414Z,1.63
2022-09-20T04:07:40.251Z,1.83
2022-09-20T04:10:28.875Z,2.17
2022-09-20T04:13:16.499Z,2.08
2022-09-20T04:15:47.243Z,2.05
2022-09-20T04:18:22.946Z,1.35
2022-09-20T04:20:58.449Z,1.48
2022-09-20T04:23:32.086Z,1.88
2022-09-20T04:26:02.357Z,1.98
2022-09-20T04:28:33.311Z,2.33
2022-09-20T04:31:04.405Z,1.98
2022-09-20T04:33:34.784Z,1.67
2022-09-20T04:36:28.980Z,2.33
2022-09-20T04:39:01.853Z,2.35
2022-09-20T04:41:50.103Z,2.53
2022-09-20T04:44:41.860Z,2.10
2022-09-20T04:47:33.843Z,2.08
2022-09-20T04:50:19.779Z,1.88
2022-09-20T04:53:06.020Z,1.60
2022-09-20T04:55:46.038Z,1.90
2022-09-20T04:58:27.387Z,2.15
2022-09-20T05:01:02.131Z,1.35
2022-09-20T05:03:47.048Z,1.80
2022-09-20T05:06:25.535Z,1.60
2022-09-20T05:09:02.372Z,2.25
2022-09-20T05:11:51.011Z,1.73
2022-09-20T05:14:26.709Z,1.83
2022-09-20T05:17:08.920Z,1.88
2022-09-20T05:19:43.236Z,2.08
2022-09-20T05:22:28.002Z,2.22
2022-09-20T05:25:04.194Z,2.20
2022-09-20T05:27:38.172Z,1.70
2022-09-20T05:30:13.607Z,1.83
2022-09-20T05:32:47.171Z,1.33
2022-09-20T05:35:24.447Z,1.83
2022-09-20T05:38:02.401Z,1.75
2022-09-20T05:40:32.827Z,1.90
2022-09-20T05:43:03.771Z,1.67
2022-09-20T05:45:44.481Z,1.50
2022-09-20T05:48:14.449Z,1.60
2022-09-20T05:50:47.340Z,1.55
2022-09-20T05:53:33.944Z,1.40
2022-09-20T05:56:07.225Z,1.67
2022-09-20T05:58:45.576Z,1.38
2022-09-20T06:01:16.938Z,1.73
2022-09-20T06:03:46.691Z,1.75
2022-09-20T06:06:15.716Z,1.77
2022-09-20T06:08:53.113Z,1.48
2022-09-20T06:11:36.722Z,1.95
2022-09-20T06:14:11.687Z,1.98
2022-09-20T06:16:47.597Z,3.50
2022-09-20T06:19:21.316Z,2.00
2022-09-20T06:21:51.767Z,1.35
2022-09-20T06:24:24.781Z,1.70
2022-09-20T06:29:25.257Z,1.88
2022-09-20T06:31:55.249Z,2.22
2022-09-20T06:34:23.070Z,2.55
2022-09-20T06:37:10.873Z,2.38
2022-09-20T06:40:01.078Z,2.20
2022-09-20T06:42:29.748Z,2.00
2022-09-20T06:44:58.489Z,2.38
2022-09-20T06:47:28.256Z,2.05
2022-09-20T06:49:56.627Z,2.67
2022-09-20T06:52:24.359Z,3.33
2022-09-20T06:54:53.883Z,2.88
2022-09-20T06:57:24.757Z,4.65
2022-09-20T06:59:52.619Z,5.05
2022-09-20T07:02:20.441Z,5.93
2022-09-20T07:04:49.555Z,3.00
2022-09-20T07:07:18.991Z,3.50
2022-09-20T07:09:47.370Z,3.13
2022-09-20T07:12:15.080Z,3.22
2022-09-20T07:14:43.084Z,3.40
2022-09-20T07:17:10.966Z,3.53
2022-09-20T07:19:38.913Z,3.47
2022-09-20T07:22:08.282Z,4.25
2022-09-20T07:24:36.409Z,3.95
2022-09-20T07:27:05.579Z,2.67
2022-09-20T07:29:35.344Z,3.70
2022-09-20T07:32:03.554Z,3.47
2022-09-20T07:34:32.125Z,3.45
2022-09-20T07:37:00.597Z,3.45
2022-09-20T07:39:29.917Z,4.65
2022-09-20T07:41:57.875Z,3.30
2022-09-20T07:44:25.582Z,3.30
2022-09-20T07:46:54.275Z,4.50
2022-09-20T07:49:22.562Z,3.63
2022-09-20T07:51:51.196Z,3.10
2022-09-20T07:54:19.298Z,3.28
2022-09-20T07:56:48.430Z,3.20
2022-09-20T07:59:16.988Z,3.13
2022-09-20T08:01:45.911Z,3.75
2022-09-20T08:04:13.736Z,3.63
2022-09-20T08:06:42.718Z,3.33
2022-09-20T08:09:11.584Z,2.42
2022-09-20T08:11:40.304Z,1.85
2022-09-20T08:14:13.154Z,2.47
2022-09-20T08:16:41.974Z,2.28
2022-09-20T08:19:12.727Z,2.03
2022-09-20T08:21:41.163Z,2.55
2022-09-20T08:24:08.882Z,1.70
2022-09-20T08:26:37.110Z,2.13
2022-09-20T08:29:06.254Z,1.73
2022-09-20T08:31:37.617Z,1.67
2022-09-20T08:34:06.670Z,2.03
2022-09-20T08:36:37.239Z,1.75
2022-09-20T08:41:56.707Z,1.63
2022-09-20T08:44:36.299Z,2.03
2022-09-20T08:47:09.878Z,2.50
2022-09-20T08:49:39.073Z,1.85
2022-09-20T08:52:10.792Z,2.70
2022-09-20T08:54:43.663Z,2.17
2022-09-20T08:57:15.693Z,2.20
2022-09-20T08:59:43.673Z,2.03
2022-09-20T09:02:16.064Z,2.30
2022-09-20T09:04:44.707Z,1.85
2022-09-20T09:07:13.786Z,1.60
2022-09-20T09:09:45.033Z,2.08
2022-09-20T09:12:29.523Z,2.22
2022-09-20T09:14:59.936Z,1.67
2022-09-20T09:17:31.298Z,1.98
2022-09-20T09:20:00.080Z,2.10
2022-09-20T09:22:35.243Z,1.65
2022-09-20T09:25:10.773Z,2.13
2022-09-20T09:27:50.749Z,1.65
2022-09-20T09:30:20.892Z,1.80
2022-09-20T09:32:50.063Z,1.75
2022-09-20T09:35:23.891Z,1.67
2022-09-20T09:37:54.827Z,1.40
2022-09-20T09:40:22.932Z,1.60
2022-09-20T09:42:51.819Z,1.20
2022-09-20T09:45:31.321Z,1.45
2022-09-20T09:48:01.812Z,1.40
2022-09-20T09:50:31.579Z,1.50
2022-09-20T09:53:04.240Z,0.82
2022-09-20T09:55:37.622Z,1.40
2022-09-20T09:58:08.504Z,1.20
2022-09-20T10:00:42.945Z,1.20
2022-09-20T10:03:28.793Z,1.73
2022-09-20T10:06:06.230Z,1.60
2022-09-20T10:08:39.055Z,1.83
2022-09-20T10:11:14.331Z,1.20
2022-09-20T10:13:45.817Z,2.13
2022-09-20T10:16:21.071Z,1.17
2022-09-20T10:18:52.418Z,1.20
2022-09-20T10:21:29.014Z,1.45
2022-09-20T10:24:05.605Z,1.52
2022-09-20T10:26:45.317Z,1.10
2022-09-20T10:29:18.037Z,1.00
2022-09-20T10:31:52.974Z,1.48
2022-09-20T10:34:35.409Z,1.23
2022-09-20T10:37:07.061Z,1.07
2022-09-20T10:39:35.598Z,1.20
2022-09-20T10:42:26.828Z,1.23
2022-09-20T10:45:03.412Z,1.02
2022-09-20T10:47:34.756Z,1.83
2022-09-20T10:50:07.822Z,1.08
2022-09-20T10:52:47.515Z,1.05
2022-09-20T10:55:25.729Z,1.15
2022-09-20T10:58:16.990Z,1.42
2022-09-20T11:00:50.894Z,1.02
2022-09-20T11:03:24.349Z,1.30
2022-09-20T11:06:00.677Z,1.10
2022-09-20T11:08:33.926Z,0.95
2022-09-20T11:11:13.033Z,1.20
2022-09-20T11:13:45.879Z,1.10
2022-09-20T11:16:17.086Z,1.80
2022-09-20T11:18:50.457Z,1.60
2022-09-20T11:21:22.035Z,1.95
2022-09-20T11:23:53.786Z,1.85
2022-09-20T11:26:25.916Z,3.03
2022-09-20T11:28:55.864Z,2.90
2022-09-20T11:31:25.811Z,2.42
2022-09-20T11:33:55.743Z,2.72
2022-09-20T11:36:26.568Z,1.55
2022-09-20T11:38:58.426Z,1.50
2022-09-20T11:41:27.924Z,1.85
2022-09-20T11:43:57.454Z,1.63
2022-09-20T11:46:26.632Z,1.83
2022-09-20T11:48:58.037Z,1.95
2022-09-20T11:51:40.878Z,1.90
2022-09-20T11:54:23.150Z,1.40
2022-09-20T11:56:52.042Z,1.30
2022-09-20T11:59:30.204Z,1.20
2022-09-20T12:01:59.522Z,1.13
2022-09-20T12:04:33.920Z,1.20
2022-09-20T12:07:08.928Z,1.25
2022-09-20T12:09:41.913Z,1.13
2022-09-20T12:12:22.699Z,1.10
2022-09-20T12:14:55.657Z,1.08
2022-09-20T12:17:53.397Z,0.80
2022-09-20T12:20:35.978Z,0.85
2022-09-20T12:23:20.140Z,1.15
2022-09-20T12:26:01.838Z,1.20
2022-09-20T12:28:34.182Z,1.00
2022-09-20T12:31:20.875Z,1.40
2022-09-20T12:33:57.492Z,1.30
2022-09-20T12:36:25.894Z,1.23
2022-09-20T12:39:00.208Z,1.40
2022-09-20T12:41:45.585Z,1.00
2022-09-20T12:44:27.682Z,1.40
2022-09-20T12:46:56.997Z,1.42
2022-09-20T12:49:57.656Z,1.25
2022-09-20T12:52:45.319Z,1.13
2022-09-20T12:55:14.340Z,1.13
2022-09-20T12:57:43.676Z,1.40
2022-09-20T13:00:26.529Z,1.67
2022-09-20T13:02:58.401Z,1.60
2022-09-20T13:05:33.634Z,1.80
2022-09-20T13:08:03.436Z,1.60
2022-09-20T13:10:33.622Z,1.60
2022-09-20T13:13:05.664Z,1.55
2022-09-20T13:15:35.003Z,1.95
2022-09-20T13:18:02.932Z,2.30
2022-09-20T13:20:34.694Z,2.03
2022-09-20T13:23:04.985Z,1.83
2022-09-20T13:25:34.258Z,2.33
2022-09-20T13:28:07.908Z,1.50
2022-09-20T13:30:40.745Z,1.80
2022-09-20T13:33:21.885Z,1.48
2022-09-20T13:35:52.641Z,1.88
2022-09-20T13:38:22.556Z,1.52
2022-09-20T13:40:53.052Z,1.60
2022-09-20T13:43:28.195Z,1.90
2022-09-20T13:45:57.300Z,1.90
2022-09-20T13:48:26.209Z,1.85
2022-09-20T13:50:54.970Z,1.48
2022-09-20T13:53:40.645Z,1.70
2022-09-20T13:56:11.336Z,1.90
2022-09-20T13:58:40.614Z,1.98
2022-09-20T14:01:22.010Z,1.35
2022-09-20T14:03:50.441Z,2.08
2022-09-20T14:06:19.210Z,2.00
2022-09-20T14:08:48.136Z,1.50
2022-09-20T14:11:17.402Z,1.52
2022-09-20T14:13:48.972Z,1.20
2022-09-20T14:16:17.933Z,1.58
2022-09-20T14:18:47.251Z,1.55
2022-09-20T14:21:18.707Z,1.40
2022-09-20T14:23:53.164Z,1.88
2022-09-20T14:26:25.661Z,1.60
2022-09-20T14:28:55.267Z,1.42
2022-09-20T14:31:24.235Z,1.15
2022-09-20T14:33:55.305Z,1.50
2022-09-20T14:36:24.552Z,1.45
2022-09-20T14:38:53.631Z,1.08
2022-09-20T14:41:25.938Z,1.55
2022-09-20T14:43:57.357Z,1.63
2022-09-20T14:46:30.672Z,1.67
2022-09-20T14:49:13.318Z,1.70
2022-09-20T14:51:41.066Z,2.35
2022-09-20T14:54:22.616Z,1.80
2022-09-20T14:56:50.951Z,1.75
2022-09-20T14:59:24.879Z,2.28
2022-09-20T15:01:57.997Z,1.92
2022-09-20T15:06:53.937Z,1.52
2022-09-20T15:09:22.563Z,1.55
2022-09-20T15:12:00.088Z,1.67
2022-09-20T15:14:30.330Z,2.00
2022-09-20T15:17:00.340Z,1.42
2022-09-20T15:19:28.470Z,1.90
2022-09-20T15:21:56.275Z,1.70
2022-09-20T15:24:23.995Z,2.40
2022-09-20T15:26:52.168Z,2.20
2022-09-20T15:29:20.358Z,4.05
2022-09-20T15:31:49.786Z,2.00
2022-09-20T15:34:17.687Z,3.60
2022-09-20T15:36:45.697Z,2.40
2022-09-20T15:39:13.821Z,6.53
2022-09-20T15:41:44.425Z,2.55
2022-09-20T15:44:12.374Z,2.10
2022-09-20T15:46:41.730Z,2.15
2022-09-20T15:49:14.718Z,3.75
2022-09-20T15:51:43.703Z,3.83
2022-09-20T15:54:14.180Z,2.63
2022-09-20T15:56:42.163Z,2.30
2022-09-20T15:59:11.273Z,1.75
2022-09-20T16:01:40.785Z,1.40
2022-09-20T16:04:10.065Z,2.17
2022-09-20T16:06:40.049Z,2.63
2022-09-20T16:09:08.442Z,2.63
2022-09-20T16:11:36.742Z,2.50
2022-09-20T16:14:04.482Z,2.22
2022-09-20T16:16:38.964Z,4.70
2022-09-20T16:19:22.393Z,2.92
2022-09-20T16:21:57.753Z,9.50
2022-09-20T16:24:26.955Z,2.05
2022-09-20T16:26:54.666Z,2.15
2022-09-20T16:29:23.509Z,1.50
2022-09-20T16:31:51.624Z,1.40
2022-09-20T16:34:20.163Z,1.73
2022-09-20T16:36:48.933Z,1.70
2022-09-20T16:39:18.920Z,2.15
2022-09-20T16:41:47.842Z,2.83
2022-09-20T16:44:15.852Z,1.83
2022-09-20T16:46:44.501Z,4.55
2022-09-20T16:49:13.539Z,2.70
2022-09-20T16:51:42.536Z,2.97
2022-09-20T16:54:12.217Z,2.30
2022-09-20T16:56:42.227Z,3.53
2022-09-20T16:59:10.777Z,2.10
2022-09-20T17:01:39.361Z,1.80
2022-09-20T17:04:08.218Z,2.05
2022-09-20T17:06:37.431Z,2.08
2022-09-20T17:09:05.602Z,1.05
2022-09-20T17:11:35.955Z,1.25
2022-09-20T17:14:05.942Z,1.40
2022-09-20T17:16:35.009Z,1.40
2022-09-20T17:19:04.345Z,1.80
2022-09-20T17:21:32.063Z,1.25
2022-09-20T17:24:00.558Z,1.40
2022-09-20T17:26:31.710Z,1.23
2022-09-20T17:29:00.130Z,1.25
2022-09-20T17:31:30.540Z,1.40
2022-09-20T17:34:00.297Z,1.48
2022-09-20T17:36:29.648Z,1.55
2022-09-20T17:39:03.628Z,1.50
2022-09-20T17:41:32.540Z,1.42
2022-09-20T17:44:02.585Z,1.25
2022-09-20T17:46:33.620Z,1.45
2022-09-20T17:49:02.336Z,1.50
2022-09-20T17:51:32.458Z,1.65
2022-09-20T17:54:00.554Z,1.73
2022-09-20T17:56:31.194Z,2.35
2022-09-20T17:59:00.134Z,2.03
2022-09-20T18:01:28.252Z,2.95
2022-09-20T18:04:01.003Z,2.28
2022-09-20T18:06:29.745Z,2.63
2022-09-20T18:08:58.810Z,2.58
2022-09-20T18:11:28.981Z,2.83
2022-09-20T18:13:56.718Z,2.40
2022-09-20T18:16:24.748Z,2.65
2022-09-20T18:18:52.970Z,2.50
2022-09-20T18:21:23.527Z,2.58
2022-09-20T18:23:51.826Z,2.88
2022-09-20T18:26:23.501Z,2.78
2022-09-20T18:28:55.091Z,2.28
2022-09-20T18:31:23.208Z,2.22
2022-09-20T18:33:53.157Z,2.35
2022-09-20T18:36:25.608Z,3.25
2022-09-20T18:38:54.781Z,3.58
2022-09-20T18:41:25.669Z,2.72
2022-09-20T18:43:54.456Z,2.67
2022-09-20T18:46:24.962Z,2.50
2022-09-20T18:48:53.047Z,2.70
2022-09-20T18:51:24.215Z,2.05
2022-09-20T18:53:52.346Z,2.35
2022-09-20T18:56:24.002Z,2.20
2022-09-20T18:58:52.886Z,1.92
2022-09-20T19:01:48.378Z,1.67
2022-09-20T19:04:25.902Z,1.90
2022-09-20T19:07:01.286Z,2.05
2022-09-20T19:09:32.354Z,3.20
2022-09-20T19:12:02.807Z,3.67
2022-09-20T19:14:34.478Z,3.50
2022-09-20T19:17:03.066Z,3.53
2022-09-20T19:19:39.137Z,5.47
2022-09-20T19:22:14.005Z,6.85
2022-09-20T19:24:55.718Z,5.32
2022-09-20T19:27:23.697Z,5.18
2022-09-20T19:29:51.750Z,4.32
2022-09-20T19:32:21.668Z,3.60
2022-09-20T19:34:51.684Z,3.28
2022-09-20T19:37:25.886Z,2.88
2022-09-20T19:40:05.113Z,2.83
2022-09-20T19:42:37.036Z,8.02
2022-09-20T19:45:11.541Z,7.65
2022-09-20T19:47:47.376Z,3.80
2022-09-20T19:50:17.083Z,3.72
2022-09-20T19:52:46.489Z,3.58
2022-09-20T19:55:15.691Z,3.75
2022-09-20T19:57:44.428Z,4.60
2022-09-20T20:00:14.571Z,4.68
2022-09-20T20:02:42.809Z,5.00
2022-09-20T20:05:12.170Z,4.38
2022-09-20T20:07:42.458Z,5.10
2022-09-20T20:10:16.301Z,4.68
2022-09-20T20:12:47.677Z,4.95
2022-09-20T20:15:21.372Z,6.13
2022-09-20T20:17:52.783Z,5.63
2022-09-20T20:20:25.658Z,6.18
2022-09-20T20:23:09.876Z,5.28
2022-09-20T20:25:42.254Z,5.00
2022-09-20T20:28:10.311Z,4.80
2022-09-20T20:30:38.046Z,3.97
2022-09-20T20:33:07.490Z,3.63
2022-09-20T20:35:37.360Z,3.30
2022-09-20T20:38:06.123Z,3.00
2022-09-20T20:40:34.098Z,3.20
2022-09-20T20:43:03.277Z,3.08
2022-09-20T20:45:31.469Z,3.50
2022-09-20T20:47:59.862Z,3.30
2022-09-20T20:50:28.007Z,3.90
2022-09-20T20:52:56.276Z,3.50
2022-09-20T20:55:24.895Z,3.60
2022-09-20T20:57:54.256Z,3.15
2022-09-20T21:00:23.432Z,3.15
2022-09-20T21:02:56.229Z,3.30
2022-09-20T21:05:24.550Z,2.92
2022-09-20T21:07:53.245Z,2.50
2022-09-20T21:10:21.898Z,2.53
2022-09-20T21:12:51.185Z,2.28
2022-09-20T21:15:19.177Z,2.35
2022-09-20T21:17:52.652Z,2.53
2022-09-20T21:20:21.350Z,2.22
2022-09-20T21:22:49.068Z,2.10
2022-09-20T21:25:19.615Z,2.33
2022-09-20T21:27:47.320Z,2.35
2022-09-20T21:30:15.253Z,2.00
2022-09-20T21:32:43.202Z,2.15
2022-09-20T21:35:12.992Z,2.60
2022-09-20T21:37:41.244Z,3.20
2022-09-20T21:40:10.296Z,2.72
2022-09-20T21:42:38.074Z,3.05
2022-09-20T21:45:09.221Z,2.90
2022-09-20T21:47:37.461Z,2.45
2022-09-20T21:50:05.388Z,2.17
2022-09-20T21:52:34.502Z,2.10
2022-09-20T21:55:02.498Z,2.72
2022-09-20T21:57:30.410Z,2.90
2022-09-20T21:59:58.497Z,2.90
2022-09-20T22:02:26.243Z,4.20
2022-09-20T22:04:53.975Z,2.35
2022-09-20T22:07:22.218Z,2.28
2022-09-20T22:09:51.356Z,3.03
2022-09-20T22:12:21.598Z,2.15
2022-09-20T22:14:51.690Z,2.28
2022-09-20T22:17:19.623Z,2.47
2022-09-20T22:19:47.329Z,2.50
2022-09-20T22:22:15.233Z,2.88
2022-09-20T22:24:43.783Z,2.22
2022-09-20T22:27:12.830Z,3.00
2022-09-20T22:29:40.527Z,2.35
2022-09-20T22:32:08.451Z,2.60
2022-09-20T22:34:36.146Z,2.67
2022-09-20T22:37:03.871Z,2.55
2022-09-20T22:39:31.578Z,2.45
2022-09-20T22:41:59.526Z,2.47
2022-09-20T22:44:28.630Z,2.80
2022-09-20T22:46:56.323Z,2.30
2022-09-20T22:49:24.040Z,2.63
2022-09-20T22:51:51.736Z,2.05
2022-09-20T22:54:19.479Z,3.17
2022-09-20T22:56:47.440Z,2.45
2022-09-20T22:59:15.367Z,2.88
2022-09-20T23:01:45.453Z,2.47
2022-09-20T23:04:14.449Z,2.33
2022-09-20T23:06:43.662Z,2.30
2022-09-20T23:09:12.802Z,2.50
2022-09-20T23:11:41.991Z,1.98
2022-09-20T23:14:11.669Z,2.10
2022-09-20T23:16:39.711Z,2.50
2022-09-20T23:19:09.528Z,2.33
2022-09-20T23:21:38.413Z,2.15
2022-09-20T23:24:06.841Z,1.95
2022-09-20T23:26:35.616Z,1.95
2022-09-20T23:29:04.676Z,2.03
2022-09-20T23:31:34.557Z,2.72
2022-09-20T23:34:04.514Z,2.15
2022-09-20T23:36:34.879Z,2.10
2022-09-20T23:39:02.608Z,2.65
2022-09-20T23:41:30.459Z,2.05
2022-09-20T23:43:58.145Z,2.53
2022-09-20T23:46:27.394Z,2.20
2022-09-20T23:48:55.379Z,2.53
2022-09-20T23:51:24.474Z,2.00
2022-09-20T23:53:54.444Z,2.10
2022-09-20T23:56:22.983Z,2.20
2022-09-20T23:58:50.789Z,2.30
